Detalii statie TARCEA AGRO TARCEA [0000197E]

Toti senzorii

Date Temperatura solului [C]Precipitatii [mm]Voltaj baterie [mV]Leaf Wetness [Min]HC Air temperature [C]HC Relative humidity [%]Punctul de roua [C]
medieminmaxsumaultimatimpmedieminmaxmediemediemin
2017-06-25 06:00:00 23.7 23.6 24 0 6854 18.55 17.69 19.45 83.59 15.5 14.8
2017-06-25 07:00:00 23.6 23.5 23.8 0 6992 19.87 18.87 21.34 81.68 16.5 15.5
2017-06-25 08:00:00 23.5 23.5 23.7 0 7236 23.34 21.66 24.68 67.54 16.8 16.3
2017-06-25 09:00:00 23.8 23.6 24.1 0 7294 25.83 25.34 27.02 52.11 15 13.8
2017-06-25 10:00:00 24.4 24.1 24.7 0 7236 26.32 24.67 27.14 46.98 13.8 13
2017-06-25 11:00:00 24.8 24.6 25 0 7294 25.22 25 25.43 55.78 15.5 14.3
2017-06-25 12:00:00 25.1 24.9 25.4 0 7294 26.2 24.85 27.72 58.46 17.2 16.3
2017-06-25 13:00:00 25.7 25.4 26.4 0 7284 28.45 27.35 30.18 52.86 17.6 16.6
2017-06-25 14:00:00 26.9 26.5 27.5 0 7284 30.37 29.21 31.09 44.14 16.5 15.5
2017-06-25 15:00:00 27.8 27.5 28.2 1.2 7294 27.49 24.08 29.82 58.47 17.8 15.6
2017-06-25 16:00:00 28.1 28 28.3 0 7216 27.04 25.21 27.84 75.17 22 20.9
2017-06-25 17:00:00 28 28 28.2 0 7254 28.28 27.4 28.92 57.67 18.9 18.2
2017-06-25 18:00:00 27.9 27.8 28.1 0 7284 29 28.46 29.75 52.32 18 17.4
2017-06-25 19:00:00 27.7 27.5 27.9 0 7284 29.13 28.78 29.44 50.34 17.5 16.8
2017-06-25 20:00:00 27.4 27.4 27.7 0 6982 27.34 26.32 28.81 63.93 19.6 17
2017-06-25 21:00:00 27.1 26.9 27.4 0 6952 25.15 24.37 26.17 82.28 21.7 19.6
2017-06-25 22:00:00 26.6 26.4 26.8 2 6922 21.3 20.33 23.71 97.33 20.7 19.6
2017-06-25 23:00:00 25.9 25.6 26.4 3.6 6904 19.46 19.02 20.17 100 19.4 19
2017-06-26 00:00:00 25.2 25 25.5 0.8 6874 18.87 18.71 18.99 100 18.8 18.7
2017-06-26 01:00:00 24.7 24.6 24.9 2 6854 18.78 18.66 18.99 100 18.7 18.6
2017-06-26 02:00:00 24.1 23.8 24.5 3.6 6854 18.57 18.51 18.76 100 18.5 18.5
2017-06-26 03:00:00 23.6 23.4 23.8 0 6854 18.55 18.51 18.66 100 18.5 18.5
2017-06-26 04:00:00 23.3 23.2 23.5 0.2 6854 18.43 18.34 18.51 100 18.3 18.3
2017-06-26 05:00:00 23 22.9 23.2 0 6844 18.28 18.23 18.37 100 18.2 18.2
2017-06-26 06:00:00 22.8 22.7 23 0 6874 18.47 18.27 18.8 100 18.4 18.2
2017-06-26 07:00:00 22.6 22.5 22.8 0 6992 18.92 18.77 19.31 100 18.8 18.7
2017-06-26 08:00:00 22.7 22.6 22.8 0 7294 19.66 19.29 20.51 100 19.6 19.2
2017-06-26 09:00:00 22.9 22.7 23.2 0 7294 20.39 19.66 21.49 100 20.3 19.6
2017-06-26 10:00:00 23.4 23.2 23.7 0 7294 22.35 21.55 23.14 99.09 22.1 21.5
2017-06-26 11:00:00 24 23.7 24.4 0 7304 23.42 22.87 23.93 91.34 21.8 21.5
2017-06-26 12:00:00 24.5 24.3 24.7 0 7294 24.24 23.49 24.86 81.21 20.6 19.6
2017-06-26 13:00:00 24.8 24.7 25 0 7294 24.97 24.3 25.68 76.41 20.3 19.7
2017-06-26 14:00:00 25.1 24.9 25.5 0 7294 26 25.39 26.27 67.51 19.3 18.3
2017-06-26 15:00:00 25.8 25.5 26.2 0 7304 26.18 25.52 26.64 64.52 18.8 17.7
2017-06-26 16:00:00 26.3 25.9 26.7 0 7294 26.28 25.47 26.74 62.92 18.4 17.9
2017-06-26 17:00:00 26.6 26.5 26.7 0 7284 26.19 25.52 26.82 64.01 18.6 18
2017-06-26 18:00:00 26.6 26.3 26.9 0 7294 25.71 25.14 26.06 65.03 18.4 17.6
2017-06-26 19:00:00 26.5 26.4 26.8 0 7284 25.65 24.97 26.4 64.21 18.1 17.1